This is the latest recevied weather packets stored in our database for station/object N3SBK. If no packets are shown the sender has not sent any weather packets the latest 10 day(s).
| Time | Temp. | Humidity | Pressure | Rain* | Wind** | Luminosity | Snow |
|---|---|---|---|---|---|---|---|
| 1777046936 | 23.89° C | 43% | 1001.6 hPa | 0 mm | - | 657 W/m² | - |
| 1777046632 | 23.33° C | 46% | 1001.6 hPa | 0 mm | - | 638 W/m² | - |
| 1777046328 | 23.33° C | 47% | 1001.6 hPa | 0 mm | - | 230 W/m² | - |
| 1777046023 | 23.33° C | 49% | 1001.7 hPa | 0 mm | - | 225 W/m² | - |
| 1777045720 | 23.33° C | 49% | 1001.8 hPa | 0 mm | - | 171 W/m² | - |
| 1777045416 | 23.33° C | 46% | 1001.7 hPa | 0 mm | - | 175 W/m² | - |
| 1777045112 | 22.78° C | 49% | 1001.8 hPa | 0 mm | - | 241 W/m² | - |
| 1777044807 | 22.78° C | 51% | 1001.8 hPa | 0 mm | - | 220 W/m² | - |
| 1777044504 | 22.78° C | 52% | 1002 hPa | 0 mm | - | 187 W/m² | - |
| 1777044200 | 22.78° C | 50% | 1001.8 hPa | 0 mm | - | 223 W/m² | - |
| 1777043896 | 22.22° C | 49% | 1001.8 hPa | 0 mm | - | 267 W/m² | - |
| 1777043593 | 22.22° C | 51% | 1001.9 hPa | 0 mm | - | 179 W/m² | - |
| 1777043289 | 22.78° C | 51% | 1002 hPa | 0 mm | - | 184 W/m² | - |
| 1777042984 | 22.22° C | 52% | 1001.8 hPa | 0 mm | - | 185 W/m² | - |
| 1777042681 | 22.22° C | 54% | 1002 hPa | 0 mm | - | 205 W/m² | - |
| 1777042376 | 22.22° C | 54% | 1002 hPa | 0 mm | - | 192 W/m² | - |
| 1777042071 | 22.78° C | 52% | 1001.8 hPa | 0 mm | - | 205 W/m² | - |
| 1777041769 | 22.22° C | 51% | 1001.9 hPa | 0 mm | - | 248 W/m² | - |
| 1777041464 | 21.67° C | 53% | 1001.9 hPa | 0 mm | - | 436 W/m² | - |
| 1777041162 | 21.11° C | 56% | 1001.9 hPa | 0 mm | - | 437 W/m² | - |
| 1777040858 | 20.56° C | 58% | 1002.1 hPa | 0 mm | - | 355 W/m² | - |
| 1777040553 | 20° C | 59% | 1002.1 hPa | 0 mm | - | 158 W/m² | - |
| 1777040248 | 20° C | 63% | 1002.4 hPa | 0 mm | - | 144 W/m² | - |
| 1777039943 | 20° C | 61% | 1002.2 hPa | 0 mm | - | 168 W/m² | - |
| 1777039639 | 20° C | 62% | 1002.1 hPa | 0 mm | - | 138 W/m² | - |
* Rain latest hour (hover to see other rain measurements)
** Current wind speed in m/s (hover to see current wind gust speed)